sensor_id;sensor_type;location;lat;lon;timestamp;pressure;altitude;pressure_sealevel;temperature;humidity
15634;BME280;14654;48.898;8.308;2022-12-10T00:02:19;99141.72;;;1.81;100.00
15634;BME280;14654;48.898;8.308;2022-12-10T00:04:44;99145.13;;;1.80;100.00
15634;BME280;14654;48.898;8.308;2022-12-10T00:07:09;99150.22;;;1.80;100.00
15634;BME280;14654;48.898;8.308;2022-12-10T00:09:35;99150.19;;;1.78;100.00
15634;BME280;14654;48.898;8.308;2022-12-10T00:12:00;99150.19;;;1.77;100.00
15634;BME280;14654;48.898;8.308;2022-12-10T00:14:25;99163.78;;;1.77;100.00
15634;BME280;14654;48.898;8.308;2022-12-10T00:16:51;99160.34;;;1.75;100.00
15634;BME280;14654;48.898;8.308;2022-12-10T00:19:16;99159.47;;;1.72;100.00
15634;BME280;14654;48.898;8.308;2022-12-10T00:21:43;99159.47;;;1.70;100.00
15634;BME280;14654;48.898;8.308;2022-12-10T00:24:09;99162.03;;;1.72;100.00
15634;BME280;14654;48.898;8.308;2022-12-10T00:26:36;99159.53;;;1.73;100.00
15634;BME280;14654;48.898;8.308;2022-12-10T00:29:03;99163.75;;;1.73;100.00
15634;BME280;14654;48.898;8.308;2022-12-10T00:31:31;99161.16;;;1.68;100.00
15634;BME280;14654;48.898;8.308;2022-12-10T00:33:59;99153.47;;;1.63;100.00
15634;BME280;14654;48.898;8.308;2022-12-10T00:36:28;99146.66;;;1.62;100.00
15634;BME280;14654;48.898;8.308;2022-12-10T00:38:54;99154.34;;;1.67;100.00
15634;BME280;14654;48.898;8.308;2022-12-10T00:41:19;99155.16;;;1.61;100.00
15634;BME280;14654;48.898;8.308;2022-12-10T00:43:46;99154.28;;;1.61;100.00
15634;BME280;14654;48.898;8.308;2022-12-10T00:46:12;99159.38;;;1.61;100.00
15634;BME280;14654;48.898;8.308;2022-12-10T00:48:38;99153.44;;;1.59;100.00
15634;BME280;14654;48.898;8.308;2022-12-10T00:51:08;99163.59;;;1.57;100.00
15634;BME280;14654;48.898;8.308;2022-12-10T00:53:35;99154.25;;;1.55;100.00
15634;BME280;14654;48.898;8.308;2022-12-10T00:56:01;99162.72;;;1.54;100.00
15634;BME280;14654;48.898;8.308;2022-12-10T00:58:28;99166.97;;;1.51;100.00
15634;BME280;14654;48.898;8.308;2022-12-10T01:00:54;99168.66;;;1.51;100.00
15634;BME280;14654;48.898;8.308;2022-12-10T01:03:20;99174.59;;;1.51;100.00
15634;BME280;14654;48.898;8.308;2022-12-10T01:05:45;99175.44;;;1.52;100.00
15634;BME280;14654;48.898;8.308;2022-12-10T01:08:11;99176.34;;;1.57;100.00
15634;BME280;14654;48.898;8.308;2022-12-10T01:10:37;99182.28;;;1.56;100.00
15634;BME280;14654;48.898;8.308;2022-12-10T01:13:03;99178.88;;;1.52;100.00
15634;BME280;14654;48.898;8.308;2022-12-10T01:15:28;99183.97;;;1.52;100.00
15634;BME280;14654;48.898;8.308;2022-12-10T01:17:54;99187.34;;;1.50;100.00
15634;BME280;14654;48.898;8.308;2022-12-10T01:20:19;99188.28;;;1.57;100.00
15634;BME280;14654;48.898;8.308;2022-12-10T01:22:45;99190.78;;;1.54;100.00
15634;BME280;14654;48.898;8.308;2022-12-10T01:25:10;99194.16;;;1.52;100.00
15634;BME280;14654;48.898;8.308;2022-12-10T01:27:35;99193.28;;;1.52;100.00
15634;BME280;14654;48.898;8.308;2022-12-10T01:30:01;99201.81;;;1.51;100.00
15634;BME280;14654;48.898;8.308;2022-12-10T01:32:26;99199.28;;;1.52;100.00
15634;BME280;14654;48.898;8.308;2022-12-10T01:34:51;99195.00;;;1.50;100.00
15634;BME280;14654;48.898;8.308;2022-12-10T01:37:16;99187.34;;;1.50;100.00
15634;BME280;14654;48.898;8.308;2022-12-10T01:39:42;99194.09;;;1.46;100.00
15634;BME280;14654;48.898;8.308;2022-12-10T01:42:09;99194.09;;;1.46;100.00
15634;BME280;14654;48.898;8.308;2022-12-10T01:47:08;99196.72;;;1.51;100.00
15634;BME280;14654;48.898;8.308;2022-12-10T01:49:37;99193.25;;;1.47;100.00
15634;BME280;14654;48.898;8.308;2022-12-10T01:52:04;99191.56;;;1.48;100.00
15634;BME280;14654;48.898;8.308;2022-12-10T01:54:36;99195.81;;;1.46;100.00
15634;BME280;14654;48.898;8.308;2022-12-10T01:57:21;99200.03;;;1.45;100.00
15634;BME280;14654;48.898;8.308;2022-12-10T02:00:00;99204.25;;;1.42;100.00
15634;BME280;14654;48.898;8.308;2022-12-10T02:02:38;99200.03;;;1.42;100.00
15634;BME280;14654;48.898;8.308;2022-12-10T02:05:21;99200.84;;;1.41;100.00
15634;BME280;14654;48.898;8.308;2022-12-10T02:08:00;99208.50;;;1.44;100.00
15634;BME280;14654;48.898;8.308;2022-12-10T02:15:53;99205.97;;;1.43;100.00
15634;BME280;14654;48.898;8.308;2022-12-10T02:18:31;99188.13;;;1.41;100.00
15634;BME280;14654;48.898;8.308;2022-12-10T02:21:07;99182.97;;;1.40;100.00
15634;BME280;14654;48.898;8.308;2022-12-10T02:23:37;99186.34;;;1.37;100.00
15634;BME280;14654;48.898;8.308;2022-12-10T02:26:15;99179.56;;;1.36;100.00
15634;BME280;14654;48.898;8.308;2022-12-10T02:28:51;99191.41;;;1.34;100.00
15634;BME280;14654;48.898;8.308;2022-12-10T02:31:21;99184.59;;;1.31;100.00
15634;BME280;14654;48.898;8.308;2022-12-10T02:33:51;99184.59;;;1.33;100.00
15634;BME280;14654;48.898;8.308;2022-12-10T02:36:20;99176.09;;;1.31;100.00
15634;BME280;14654;48.898;8.308;2022-12-10T02:38:47;99171.00;;;1.31;100.00
15634;BME280;14654;48.898;8.308;2022-12-10T02:41:18;99182.06;;;1.33;100.00
15634;BME280;14654;48.898;8.308;2022-12-10T02:43:46;99182.06;;;1.33;100.00
15634;BME280;14654;48.898;8.308;2022-12-10T02:46:13;99175.28;;;1.33;100.00
15634;BME280;14654;48.898;8.308;2022-12-10T02:48:39;99171.88;;;1.33;100.00
15634;BME280;14654;48.898;8.308;2022-12-10T02:51:05;99171.81;;;1.30;100.00
15634;BME280;14654;48.898;8.308;2022-12-10T02:53:30;99174.38;;;1.28;100.00
15634;BME280;14654;48.898;8.308;2022-12-10T02:56:33;99181.13;;;1.26;100.00
15634;BME280;14654;48.898;8.308;2022-12-10T02:59:28;99183.69;;;1.25;100.00
15634;BME280;14654;48.898;8.308;2022-12-10T03:02:20;99180.25;;;1.24;100.00
15634;BME280;14654;48.898;8.308;2022-12-10T03:05:07;99187.91;;;1.21;100.00
15634;BME280;14654;48.898;8.308;2022-12-10T03:07:43;99195.56;;;1.23;100.00
15634;BME280;14654;48.898;8.308;2022-12-10T03:12:48;99198.09;;;1.21;100.00
15634;BME280;14654;48.898;8.308;2022-12-10T03:15:16;99198.91;;;1.18;100.00
15634;BME280;14654;48.898;8.308;2022-12-10T03:17:45;99201.47;;;1.20;100.00
15634;BME280;14654;48.898;8.308;2022-12-10T03:20:13;99198.06;;;1.19;100.00
15634;BME280;14654;48.898;8.308;2022-12-10T03:22:43;99197.19;;;1.16;100.00
15634;BME280;14654;48.898;8.308;2022-12-10T03:25:10;99197.19;;;1.16;100.00
15634;BME280;14654;48.898;8.308;2022-12-10T03:27:39;99192.03;;;1.11;100.00
15634;BME280;14654;48.898;8.308;2022-12-10T03:30:06;99201.34;;;1.11;100.00
15634;BME280;14654;48.898;8.308;2022-12-10T03:32:32;99200.56;;;1.13;100.00
15634;BME280;14654;48.898;8.308;2022-12-10T03:34:59;99199.69;;;1.13;100.00
15634;BME280;14654;48.898;8.308;2022-12-10T03:37:27;99208.19;;;1.13;100.00
15634;BME280;14654;48.898;8.308;2022-12-10T03:39:54;99216.69;;;1.15;100.00
15634;BME280;14654;48.898;8.308;2022-12-10T03:42:21;99216.72;;;1.17;100.00
15634;BME280;14654;48.898;8.308;2022-12-10T03:44:49;99213.31;;;1.16;100.00
15634;BME280;14654;48.898;8.308;2022-12-10T03:47:15;99204.78;;;1.14;100.00
15634;BME280;14654;48.898;8.308;2022-12-10T03:49:42;99207.38;;;1.16;100.00
15634;BME280;14654;48.898;8.308;2022-12-10T03:52:07;99209.09;;;1.17;100.00
15634;BME280;14654;48.898;8.308;2022-12-10T03:54:33;99212.44;;;1.14;100.00
15634;BME280;14654;48.898;8.308;2022-12-10T03:56:58;99215.00;;;1.16;100.00
15634;BME280;14654;48.898;8.308;2022-12-10T03:59:23;99211.59;;;1.12;100.00
15634;BME280;14654;48.898;8.308;2022-12-10T04:01:49;99216.63;;;1.09;100.00
15634;BME280;14654;48.898;8.308;2022-12-10T04:04:14;99220.84;;;1.09;100.00
15634;BME280;14654;48.898;8.308;2022-12-10T04:06:40;99226.88;;;1.12;100.00
15634;BME280;14654;48.898;8.308;2022-12-10T04:09:06;99225.13;;;1.08;100.00
15634;BME280;14654;48.898;8.308;2022-12-10T04:11:32;99220.03;;;1.10;100.00
15634;BME280;14654;48.898;8.308;2022-12-10T04:13:57;99220.91;;;1.12;100.00
15634;BME280;14654;48.898;8.308;2022-12-10T04:16:41;99215.81;;;1.12;100.00
15634;BME280;14654;48.898;8.308;2022-12-10T04:19:11;99212.38;;;1.10;100.00
15634;BME280;14654;48.898;8.308;2022-12-10T04:21:38;99210.72;;;1.12;100.00
15634;BME280;14654;48.898;8.308;2022-12-10T04:24:24;99222.66;;;1.16;100.00
15634;BME280;14654;48.898;8.308;2022-12-10T04:27:36;99221.00;;;1.18;100.00
15634;BME280;14654;48.898;8.308;2022-12-10T04:30:05;99220.94;;;1.15;100.00
15634;BME280;14654;48.898;8.308;2022-12-10T04:32:30;99214.97;;;1.13;100.00
15634;BME280;14654;48.898;8.308;2022-12-10T04:34:56;99223.50;;;1.13;100.00
15634;BME280;14654;48.898;8.308;2022-12-10T04:37:22;99223.41;;;1.09;100.00
15634;BME280;14654;48.898;8.308;2022-12-10T04:39:49;99224.28;;;1.09;100.00
15634;BME280;14654;48.898;8.308;2022-12-10T04:42:15;99214.88;;;1.06;100.00
15634;BME280;14654;48.898;8.308;2022-12-10T04:44:40;99222.56;;;1.08;100.00
15634;BME280;14654;48.898;8.308;2022-12-10T04:47:07;99219.13;;;1.06;100.00
15634;BME280;14654;48.898;8.308;2022-12-10T04:49:32;99214.03;;;1.06;100.00
15634;BME280;14654;48.898;8.308;2022-12-10T04:51:58;99208.94;;;1.08;100.00
15634;BME280;14654;48.898;8.308;2022-12-10T04:54:23;99216.59;;;1.04;100.00
15634;BME280;14654;48.898;8.308;2022-12-10T04:56:49;99211.50;;;1.06;100.00
15634;BME280;14654;48.898;8.308;2022-12-10T04:59:15;99217.44;;;1.05;100.00
15634;BME280;14654;48.898;8.308;2022-12-10T05:01:41;99213.16;;;1.04;100.00
15634;BME280;14654;48.898;8.308;2022-12-10T05:04:09;99227.63;;;1.05;100.00
15634;BME280;14654;48.898;8.308;2022-12-10T05:06:34;99225.03;;;1.00;100.00
15634;BME280;14654;48.898;8.308;2022-12-10T05:09:00;99232.66;;;1.00;100.00
15634;BME280;14654;48.898;8.308;2022-12-10T05:11:28;99237.75;;;1.00;100.00
15634;BME280;14654;48.898;8.308;2022-12-10T05:13:54;99240.25;;;0.99;100.00
15634;BME280;14654;48.898;8.308;2022-12-10T05:16:21;99241.97;;;1.00;100.00
15634;BME280;14654;48.898;8.308;2022-12-10T05:18:48;99243.63;;;0.95;100.00
15634;BME280;14654;48.898;8.308;2022-12-10T05:21:15;99244.47;;;0.94;100.00
15634;BME280;14654;48.898;8.308;2022-12-10T05:23:43;99239.34;;;0.92;100.00
15634;BME280;14654;48.898;8.308;2022-12-10T05:26:13;99240.97;;;0.87;100.00
15634;BME280;14654;48.898;8.308;2022-12-10T05:28:47;99246.13;;;0.91;100.00
15634;BME280;14654;48.898;8.308;2022-12-10T05:31:15;99242.72;;;0.91;100.00
15634;BME280;14654;48.898;8.308;2022-12-10T05:33:41;99246.13;;;0.90;100.00
15634;BME280;14654;48.898;8.308;2022-12-10T05:36:06;99253.78;;;0.90;100.00
15634;BME280;14654;48.898;8.308;2022-12-10T05:38:33;99263.91;;;0.88;100.00
15634;BME280;14654;48.898;8.308;2022-12-10T05:41:08;99262.25;;;0.92;100.00
15634;BME280;14654;48.898;8.308;2022-12-10T05:43:34;99258.03;;;0.93;100.00
15634;BME280;14654;48.898;8.308;2022-12-10T05:46:04;99261.41;;;0.90;100.00
15634;BME280;14654;48.898;8.308;2022-12-10T05:48:31;99266.47;;;0.88;100.00
15634;BME280;14654;48.898;8.308;2022-12-10T05:50:57;99253.72;;;0.88;100.00
15634;BME280;14654;48.898;8.308;2022-12-10T05:53:23;99260.53;;;0.88;100.00
15634;BME280;14654;48.898;8.308;2022-12-10T05:55:59;99258.88;;;0.90;100.00
15634;BME280;14654;48.898;8.308;2022-12-10T05:58:27;99263.88;;;0.85;100.00
15634;BME280;14654;48.898;8.308;2022-12-10T06:00:52;99265.53;;;0.83;100.00
15634;BME280;14654;48.898;8.308;2022-12-10T06:03:17;99251.97;;;0.84;100.00
15634;BME280;14654;48.898;8.308;2022-12-10T06:05:43;99261.31;;;0.84;100.00
15634;BME280;14654;48.898;8.308;2022-12-10T06:08:08;99271.50;;;0.85;100.00
15634;BME280;14654;48.898;8.308;2022-12-10T06:10:34;99278.28;;;0.83;100.00
15634;BME280;14654;48.898;8.308;2022-12-10T06:13:00;99277.41;;;0.81;100.00
15634;BME280;14654;48.898;8.308;2022-12-10T06:15:25;99283.38;;;0.83;100.00
15634;BME280;14654;48.898;8.308;2022-12-10T06:17:51;99284.22;;;0.82;100.00
15634;BME280;14654;48.898;8.308;2022-12-10T06:20:16;99285.91;;;0.83;100.00
15634;BME280;14654;48.898;8.308;2022-12-10T06:22:41;99290.16;;;0.81;100.00
15634;BME280;14654;48.898;8.308;2022-12-10T06:25:07;99290.13;;;0.80;100.00
15634;BME280;14654;48.898;8.308;2022-12-10T06:27:32;99300.31;;;0.80;100.00
15634;BME280;14654;48.898;8.308;2022-12-10T06:29:58;99296.91;;;0.79;100.00
15634;BME280;14654;48.898;8.308;2022-12-10T06:32:24;99317.28;;;0.81;100.00
15634;BME280;14654;48.898;8.308;2022-12-10T06:34:49;99307.09;;;0.79;100.00
15634;BME280;14654;48.898;8.308;2022-12-10T06:37:14;99311.31;;;0.77;100.00
15634;BME280;14654;48.898;8.308;2022-12-10T06:39:40;99324.03;;;0.77;100.00
15634;BME280;14654;48.898;8.308;2022-12-10T06:42:05;99331.63;;;0.74;100.00
15634;BME280;14654;48.898;8.308;2022-12-10T06:44:31;99344.34;;;0.72;100.00
15634;BME280;14654;48.898;8.308;2022-12-10T06:46:56;99330.75;;;0.70;100.00
15634;BME280;14654;48.898;8.308;2022-12-10T06:49:22;99335.00;;;0.73;100.00
15634;BME280;14654;48.898;8.308;2022-12-10T06:51:47;99333.28;;;0.72;100.00
15634;BME280;14654;48.898;8.308;2022-12-10T06:54:14;99346.03;;;0.72;100.00
15634;BME280;14654;48.898;8.308;2022-12-10T06:56:39;99337.56;;;0.73;100.00
15634;BME280;14654;48.898;8.308;2022-12-10T06:59:05;99338.38;;;0.72;100.00
15634;BME280;14654;48.898;8.308;2022-12-10T07:01:33;99341.75;;;0.69;100.00
15634;BME280;14654;48.898;8.308;2022-12-10T07:03:59;99356.16;;;0.69;100.00
15634;BME280;14654;48.898;8.308;2022-12-10T07:06:26;99342.53;;;0.65;100.00
15634;BME280;14654;48.898;8.308;2022-12-10T07:08:53;99340.84;;;0.66;100.00
15634;BME280;14654;48.898;8.308;2022-12-10T07:11:21;99335.78;;;0.67;100.00
15634;BME280;14654;48.898;8.308;2022-12-10T07:13:47;99343.41;;;0.66;100.00
15634;BME280;14654;48.898;8.308;2022-12-10T07:16:19;99339.97;;;0.65;100.00
15634;BME280;14654;48.898;8.308;2022-12-10T07:18:45;99346.03;;;0.70;100.00
15634;BME280;14654;48.898;8.308;2022-12-10T07:21:25;99357.03;;;0.69;100.00
15634;BME280;14654;48.898;8.308;2022-12-10T07:23:52;99351.00;;;0.64;100.00
15634;BME280;14654;48.898;8.308;2022-12-10T07:26:19;99364.59;;;0.65;100.00
15634;BME280;14654;48.898;8.308;2022-12-10T07:28:45;99378.25;;;0.68;100.00
15634;BME280;14654;48.898;8.308;2022-12-10T07:31:11;99374.00;;;0.69;100.00
15634;BME280;14654;48.898;8.308;2022-12-10T07:33:36;99384.22;;;0.72;100.00
15634;BME280;14654;48.898;8.308;2022-12-10T07:36:10;99380.06;;;0.75;100.00
15634;BME280;14654;48.898;8.308;2022-12-10T07:38:36;99385.16;;;0.75;100.00
15634;BME280;14654;48.898;8.308;2022-12-10T07:41:03;99387.66;;;0.72;100.00
15634;BME280;14654;48.898;8.308;2022-12-10T07:43:28;99386.88;;;0.78;100.00
15634;BME280;14654;48.898;8.308;2022-12-10T07:45:54;99389.38;;;0.76;100.00
15634;BME280;14654;48.898;8.308;2022-12-10T07:48:20;99388.53;;;0.74;100.00
15634;BME280;14654;48.898;8.308;2022-12-10T07:50:45;99385.19;;;0.79;100.00
15634;BME280;14654;48.898;8.308;2022-12-10T07:53:10;99380.97;;;0.79;100.00
15634;BME280;14654;48.898;8.308;2022-12-10T07:55:36;99387.78;;;0.80;100.00
15634;BME280;14654;48.898;8.308;2022-12-10T07:58:03;99383.47;;;0.78;100.00
15634;BME280;14654;48.898;8.308;2022-12-10T08:00:28;99383.47;;;0.78;100.00
15634;BME280;14654;48.898;8.308;2022-12-10T08:02:53;99386.84;;;0.76;100.00
15634;BME280;14654;48.898;8.308;2022-12-10T08:05:19;99395.41;;;0.80;100.00
15634;BME280;14654;48.898;8.308;2022-12-10T08:07:45;99392.88;;;0.82;100.00
15634;BME280;14654;48.898;8.308;2022-12-10T08:10:10;99392.88;;;0.82;100.00
15634;BME280;14654;48.898;8.308;2022-12-10T08:12:36;99391.22;;;0.82;100.00
15634;BME280;14654;48.898;8.308;2022-12-10T08:15:01;99387.78;;;0.83;100.00
15634;BME280;14654;48.898;8.308;2022-12-10T08:17:27;99392.06;;;0.83;100.00
15634;BME280;14654;48.898;8.308;2022-12-10T08:19:53;99397.97;;;0.82;100.00
15634;BME280;14654;48.898;8.308;2022-12-10T08:22:20;99401.41;;;0.82;100.00
15634;BME280;14654;48.898;8.308;2022-12-10T08:24:45;99399.69;;;0.83;100.00
15634;BME280;14654;48.898;8.308;2022-12-10T08:27:10;99402.25;;;0.84;100.00
15634;BME280;14654;48.898;8.308;2022-12-10T08:29:36;99408.22;;;0.85;100.00
15634;BME280;14654;48.898;8.308;2022-12-10T08:32:01;99410.78;;;0.85;100.00
15634;BME280;14654;48.898;8.308;2022-12-10T08:34:26;99424.41;;;0.88;100.00
15634;BME280;14654;48.898;8.308;2022-12-10T08:36:52;99424.47;;;0.91;100.00
15634;BME280;14654;48.898;8.308;2022-12-10T08:39:17;99424.53;;;0.96;100.00
15634;BME280;14654;48.898;8.308;2022-12-10T08:41:44;99430.50;;;0.97;100.00
15634;BME280;14654;48.898;8.308;2022-12-10T08:44:10;99435.59;;;0.97;100.00
15634;BME280;14654;48.898;8.308;2022-12-10T08:46:36;99433.13;;;1.01;100.00
15634;BME280;14654;48.898;8.308;2022-12-10T08:49:01;99427.97;;;1.00;100.00
15634;BME280;14654;48.898;8.308;2022-12-10T08:51:27;99431.34;;;0.99;100.00
15634;BME280;14654;48.898;8.308;2022-12-10T08:53:53;99425.47;;;1.01;100.00
15634;BME280;14654;48.898;8.308;2022-12-10T08:56:18;99429.75;;;1.04;100.00
15634;BME280;14654;48.898;8.308;2022-12-10T08:58:44;99433.13;;;1.03;100.00
15634;BME280;14654;48.898;8.308;2022-12-10T09:01:12;99435.75;;;1.08;100.00
15634;BME280;14654;48.898;8.308;2022-12-10T09:03:38;99433.25;;;1.11;100.00
15634;BME280;14654;48.898;8.308;2022-12-10T09:06:10;99428.97;;;1.10;100.00
15634;BME280;14654;48.898;8.308;2022-12-10T09:08:36;99431.59;;;1.13;100.00
15634;BME280;14654;48.898;8.308;2022-12-10T09:13:31;99442.66;;;1.13;100.00
15634;BME280;14654;48.898;8.308;2022-12-10T09:15:56;99441.84;;;1.16;100.00
15634;BME280;14654;48.898;8.308;2022-12-10T09:18:22;99454.63;;;1.19;100.00
15634;BME280;14654;48.898;8.308;2022-12-10T09:20:47;99454.59;;;1.17;100.00
15634;BME280;14654;48.898;8.308;2022-12-10T09:23:12;99469.09;;;1.20;100.00
15634;BME280;14654;48.898;8.308;2022-12-10T09:25:38;99462.41;;;1.27;100.00
15634;BME280;14654;48.898;8.308;2022-12-10T09:28:03;99463.25;;;1.29;100.00
15634;BME280;14654;48.898;8.308;2022-12-10T09:30:28;99469.28;;;1.32;100.00
15634;BME280;14654;48.898;8.308;2022-12-10T09:32:54;99472.72;;;1.34;100.00
15634;BME280;14654;48.898;8.308;2022-12-10T09:35:19;99471.88;;;1.35;100.00
15634;BME280;14654;48.898;8.308;2022-12-10T09:37:44;99476.88;;;1.29;100.00
15634;BME280;14654;48.898;8.308;2022-12-10T09:40:25;99480.25;;;1.30;100.00
15634;BME280;14654;48.898;8.308;2022-12-10T09:46:05;99470.94;;;1.30;100.00
15634;BME280;14654;48.898;8.308;2022-12-10T09:51:35;99475.16;;;1.27;100.00
15634;BME280;14654;48.898;8.308;2022-12-10T09:54:04;99459.03;;;1.31;100.00
15634;BME280;14654;48.898;8.308;2022-12-10T09:56:38;99477.03;;;1.40;100.00
15634;BME280;14654;48.898;8.308;2022-12-10T09:59:22;99478.00;;;1.48;100.00
15634;BME280;14654;48.898;8.308;2022-12-10T10:02:01;99470.44;;;1.55;100.00
15634;BME280;14654;48.898;8.308;2022-12-10T10:04:28;99477.38;;;1.63;100.00
15634;BME280;14654;48.898;8.308;2022-12-10T10:06:53;99474.00;;;1.66;100.00
15634;BME280;14654;48.898;8.308;2022-12-10T10:09:19;99472.34;;;1.68;100.00
15634;BME280;14654;48.898;8.308;2022-12-10T10:11:45;99481.72;;;1.69;100.00
15634;BME280;14654;48.898;8.308;2022-12-10T10:14:27;99485.09;;;1.70;100.00
15634;BME280;14654;48.898;8.308;2022-12-10T10:16:58;99479.06;;;1.61;100.00
15634;BME280;14654;48.898;8.308;2022-12-10T10:19:28;99478.13;;;1.56;100.00
15634;BME280;14654;48.898;8.308;2022-12-10T10:21:55;99476.31;;;1.49;100.00
15634;BME280;14654;48.898;8.308;2022-12-10T10:24:23;99490.69;;;1.45;100.00
15634;BME280;14654;48.898;8.308;2022-12-10T10:26:57;99471.19;;;1.47;100.00
15634;BME280;14654;48.898;8.308;2022-12-10T10:29:23;99473.69;;;1.44;100.00
15634;BME280;14654;48.898;8.308;2022-12-10T10:32:19;99486.59;;;1.54;100.00
15634;BME280;14654;48.898;8.308;2022-12-10T10:34:47;99488.25;;;1.53;100.00
15634;BME280;14654;48.898;8.308;2022-12-10T10:37:27;99482.38;;;1.57;100.00
15634;BME280;14654;48.898;8.308;2022-12-10T10:39:56;99478.16;;;1.58;100.00
15634;BME280;14654;48.898;8.308;2022-12-10T10:42:35;99483.22;;;1.55;100.00
15634;BME280;14654;48.898;8.308;2022-12-10T10:45:03;99479.84;;;1.57;100.00
15634;BME280;14654;48.898;8.308;2022-12-10T10:47:34;99481.66;;;1.64;100.00
15634;BME280;14654;48.898;8.308;2022-12-10T10:50:03;99481.78;;;1.75;100.00
15634;BME280;14654;48.898;8.308;2022-12-10T10:52:34;99484.38;;;1.78;100.00
15634;BME280;14654;48.898;8.308;2022-12-10T10:55:00;99489.41;;;1.74;100.00
15634;BME280;14654;48.898;8.308;2022-12-10T10:57:31;99485.16;;;1.71;100.00
15634;BME280;14654;48.898;8.308;2022-12-10T11:00:10;99488.56;;;1.73;100.00
15634;BME280;14654;48.898;8.308;2022-12-10T11:02:42;99496.34;;;1.81;100.00
15634;BME280;14654;48.898;8.308;2022-12-10T11:05:24;99492.91;;;1.79;100.00
15634;BME280;14654;48.898;8.308;2022-12-10T11:08:05;99498.81;;;1.76;100.00
15634;BME280;14654;48.898;8.308;2022-12-10T11:10:32;99498.78;;;1.75;100.00
15634;BME280;14654;48.898;8.308;2022-12-10T11:17:58;99493.81;;;1.84;100.00
15634;BME280;14654;48.898;8.308;2022-12-10T11:20:30;99490.47;;;1.90;100.00
15634;BME280;14654;48.898;8.308;2022-12-10T11:22:58;99492.28;;;1.95;100.00
15634;BME280;14654;48.898;8.308;2022-12-10T11:28:18;99500.13;;;2.11;100.00
15634;BME280;14654;48.898;8.308;2022-12-10T11:34:13;99503.53;;;2.13;100.00
15634;BME280;14654;48.898;8.308;2022-12-10T11:42:56;99480.66;;;2.21;100.00
15634;BME280;14654;48.898;8.308;2022-12-10T11:51:04;99485.06;;;2.31;100.00
15634;BME280;14654;48.898;8.308;2022-12-10T11:56:24;99491.97;;;2.43;100.00
15634;BME280;14654;48.898;8.308;2022-12-10T11:59:12;99488.63;;;2.46;100.00
15634;BME280;14654;48.898;8.308;2022-12-10T12:04:25;99500.44;;;2.37;99.76
15634;BME280;14654;48.898;8.308;2022-12-10T12:06:59;99498.00;;;2.47;100.00
15634;BME280;14654;48.898;8.308;2022-12-10T12:09:45;99502.28;;;2.51;100.00
15634;BME280;14654;48.898;8.308;2022-12-10T12:17:52;99506.63;;;2.56;100.00
15634;BME280;14654;48.898;8.308;2022-12-10T12:20:32;99504.88;;;2.54;99.69
15634;BME280;14654;48.898;8.308;2022-12-10T12:23:09;99512.56;;;2.55;99.61
15634;BME280;14654;48.898;8.308;2022-12-10T12:25:39;99508.22;;;2.48;99.33
15634;BME280;14654;48.898;8.308;2022-12-10T12:28:10;99517.63;;;2.52;99.66
15634;BME280;14654;48.898;8.308;2022-12-10T12:30:37;99515.13;;;2.55;99.02
15634;BME280;14654;48.898;8.308;2022-12-10T12:40:50;99526.06;;;2.43;99.43
15634;BME280;14654;48.898;8.308;2022-12-10T12:43:20;99529.44;;;2.42;99.82
15634;BME280;14654;48.898;8.308;2022-12-10T12:45:49;99529.47;;;2.46;100.00
15634;BME280;14654;48.898;8.308;2022-12-10T12:48:23;99519.31;;;2.50;99.77
15634;BME280;14654;48.898;8.308;2022-12-10T12:52:00;99532.00;;;2.44;98.68
15634;BME280;14654;48.898;8.308;2022-12-10T12:53:54;99537.06;;;2.39;99.35
15634;BME280;14654;48.898;8.308;2022-12-10T12:56:25;99531.16;;;2.45;99.89
15634;BME280;14654;48.898;8.308;2022-12-10T13:01:54;99544.03;;;2.51;99.68
15634;BME280;14654;48.898;8.308;2022-12-10T13:04:22;99550.00;;;2.55;100.00
15634;BME280;14654;48.898;8.308;2022-12-10T13:09:52;99556.00;;;2.58;98.72
15634;BME280;14654;48.898;8.308;2022-12-10T13:13:16;99552.56;;;2.55;97.30
15634;BME280;14654;48.898;8.308;2022-12-10T13:15:46;99547.34;;;2.46;97.65
15634;BME280;14654;48.898;8.308;2022-12-10T13:23:31;99553.22;;;2.38;97.88
15634;BME280;14654;48.898;8.308;2022-12-10T13:25:59;99548.16;;;2.43;98.01
15634;BME280;14654;48.898;8.308;2022-12-10T13:41:33;99583.06;;;2.41;96.47
15634;BME280;14654;48.898;8.308;2022-12-10T13:44:46;99585.63;;;2.41;96.38
15634;BME280;14654;48.898;8.308;2022-12-10T13:49:55;99593.19;;;2.36;96.72
15634;BME280;14654;48.898;8.308;2022-12-10T14:06:15;99604.03;;;2.20;97.12
15634;BME280;14654;48.898;8.308;2022-12-10T14:08:55;99609.06;;;2.15;97.50
15634;BME280;14654;48.898;8.308;2022-12-10T14:11:26;99610.84;;;2.18;97.75
15634;BME280;14654;48.898;8.308;2022-12-10T14:13:55;99625.34;;;2.20;97.58
15634;BME280;14654;48.898;8.308;2022-12-10T14:16:24;99622.78;;;2.20;97.09
15634;BME280;14654;48.898;8.308;2022-12-10T14:18:58;99622.72;;;2.16;96.87
15634;BME280;14654;48.898;8.308;2022-12-10T14:21:24;99620.16;;;2.16;96.38
15634;BME280;14654;48.898;8.308;2022-12-10T14:23:52;99622.59;;;2.08;96.73
15634;BME280;14654;48.898;8.308;2022-12-10T14:26:21;99636.16;;;2.04;96.60
15634;BME280;14654;48.898;8.308;2022-12-10T14:28:54;99631.81;;;1.96;97.58
15634;BME280;14654;48.898;8.308;2022-12-10T14:31:26;99638.66;;;2.01;98.53
15634;BME280;14654;48.898;8.308;2022-12-10T14:33:55;99638.63;;;1.99;97.78
15634;BME280;14654;48.898;8.308;2022-12-10T14:36:37;99635.25;;;2.00;98.57
15634;BME280;14654;48.898;8.308;2022-12-10T14:39:13;99642.84;;;1.97;97.88
15634;BME280;14654;48.898;8.308;2022-12-10T14:41:40;99647.78;;;1.86;97.93
15634;BME280;14654;48.898;8.308;2022-12-10T14:44:05;99646.88;;;1.84;98.21
15634;BME280;14654;48.898;8.308;2022-12-10T14:46:31;99650.25;;;1.80;97.75
15634;BME280;14654;48.898;8.308;2022-12-10T14:48:57;99648.53;;;1.79;97.92
15634;BME280;14654;48.898;8.308;2022-12-10T14:51:24;99655.25;;;1.75;97.49
15634;BME280;14654;48.898;8.308;2022-12-10T14:53:51;99650.06;;;1.71;98.10
15634;BME280;14654;48.898;8.308;2022-12-10T14:58:54;99660.28;;;1.69;98.78